Winston, Virginia
Current Conditions -  °F | °C
As of 3:55 PM on Tuesday 21 Oct 2014 (Local Time) from KCJR Reporting Station
Broken Clouds Broken Clouds  
Wind Chill: 64°   Ceiling: 8000
Heat Index: 64°   Visibility: 10mi
Dew Point: 50°   Wind: 8mph
Humidity: 59%   Direction: 350°N
Pressure: 29.82"   Gusts: NA
Location:  38.467°N, 77.9818°W
Report Text: KCJR 211955Z AUTO 35007KT 10SM SCT065 BKN080 18/10 A2982 RMK AO2
Loading
Personal Weather Stations






























Interactive Weather Map
Tropical Storm Tracking
New forecast layout! Learn more

10-Day Weather Forecast

Advertisements
Track Severe Weather on mobile